sensor_id;sensor_type;location;lat;lon;timestamp;P1;durP1;ratioP1;P2;durP2;ratioP2
57609;SDS011;43435;46.186;9.024;2023-04-24T10:06:07;0.28;;;0.10;;
57609;SDS011;43435;46.186;9.024;2023-04-24T10:08:36;0.70;;;0.10;;
57609;SDS011;43435;46.186;9.024;2023-04-24T10:11:02;0.10;;;0.10;;
57609;SDS011;43435;46.186;9.024;2023-04-24T10:13:28;0.32;;;0.10;;
57609;SDS011;43435;46.186;9.024;2023-04-24T10:15:53;1.85;;;0.10;;
57609;SDS011;43435;46.186;9.024;2023-04-24T10:18:20;0.15;;;0.00;;
57609;SDS011;43435;46.186;9.024;2023-04-24T10:20:46;0.75;;;0.10;;
57609;SDS011;43435;46.186;9.024;2023-04-24T10:23:12;0.00;;;0.00;;
57609;SDS011;43435;46.186;9.024;2023-04-24T10:25:37;0.20;;;0.10;;
57609;SDS011;43435;46.186;9.024;2023-04-24T10:28:03;0.25;;;0.05;;
57609;SDS011;43435;46.186;9.024;2023-04-24T10:30:30;0.22;;;0.10;;
57609;SDS011;43435;46.186;9.024;2023-04-24T10:33:00;0.57;;;0.20;;
57609;SDS011;43435;46.186;9.024;2023-04-24T10:35:26;0.22;;;0.10;;
57609;SDS011;43435;46.186;9.024;2023-04-24T10:37:56;0.70;;;0.10;;
57609;SDS011;43435;46.186;9.024;2023-04-24T10:40:29;0.00;;;0.00;;
57609;SDS011;43435;46.186;9.024;2023-04-24T10:42:57;0.10;;;0.10;;
57609;SDS011;43435;46.186;9.024;2023-04-24T10:45:23;0.30;;;0.10;;
57609;SDS011;43435;46.186;9.024;2023-04-24T10:50:26;0.13;;;0.10;;
57609;SDS011;43435;46.186;9.024;2023-04-24T10:52:55;0.40;;;0.10;;
57609;SDS011;43435;46.186;9.024;2023-04-24T19:04:41;1.85;;;1.10;;
57609;SDS011;43435;46.186;9.024;2023-04-24T19:07:06;1.08;;;0.45;;
57609;SDS011;43435;46.186;9.024;2023-04-24T19:09:32;1.30;;;0.70;;
57609;SDS011;43435;46.186;9.024;2023-04-24T19:11:57;1.17;;;0.40;;
57609;SDS011;43435;46.186;9.024;2023-04-24T19:14:24;2.28;;;0.88;;
57609;SDS011;43435;46.186;9.024;2023-04-24T19:16:50;2.47;;;0.65;;
57609;SDS011;43435;46.186;9.024;2023-04-24T19:19:15;1.55;;;0.88;;
57609;SDS011;43435;46.186;9.024;2023-04-24T19:21:40;2.17;;;0.70;;
57609;SDS011;43435;46.186;9.024;2023-04-24T19:24:06;1.25;;;0.60;;
57609;SDS011;43435;46.186;9.024;2023-04-24T19:26:33;0.80;;;0.47;;
57609;SDS011;43435;46.186;9.024;2023-04-24T19:28:59;0.70;;;0.47;;
57609;SDS011;43435;46.186;9.024;2023-04-24T19:31:24;1.52;;;0.68;;
57609;SDS011;43435;46.186;9.024;2023-04-24T19:33:50;1.52;;;0.60;;
57609;SDS011;43435;46.186;9.024;2023-04-24T19:36:15;1.42;;;1.00;;
57609;SDS011;43435;46.186;9.024;2023-04-24T19:38:42;1.20;;;0.60;;
57609;SDS011;43435;46.186;9.024;2023-04-24T19:41:07;1.42;;;0.60;;
57609;SDS011;43435;46.186;9.024;2023-04-24T19:43:33;1.17;;;0.80;;
57609;SDS011;43435;46.186;9.024;2023-04-24T19:45:58;0.95;;;0.50;;
57609;SDS011;43435;46.186;9.024;2023-04-24T19:48:23;2.13;;;0.70;;
57609;SDS011;43435;46.186;9.024;2023-04-24T19:50:49;1.65;;;0.73;;
57609;SDS011;43435;46.186;9.024;2023-04-24T19:53:14;1.13;;;0.70;;
57609;SDS011;43435;46.186;9.024;2023-04-24T19:55:39;2.00;;;0.60;;
57609;SDS011;43435;46.186;9.024;2023-04-24T19:58:04;1.10;;;0.85;;
57609;SDS011;43435;46.186;9.024;2023-04-24T20:00:30;0.88;;;0.60;;
57609;SDS011;43435;46.186;9.024;2023-04-24T20:02:55;1.05;;;0.60;;
57609;SDS011;43435;46.186;9.024;2023-04-24T20:05:21;1.38;;;0.60;;
57609;SDS011;43435;46.186;9.024;2023-04-24T20:07:46;1.88;;;0.60;;
57609;SDS011;43435;46.186;9.024;2023-04-24T20:10:11;0.70;;;0.50;;
57609;SDS011;43435;46.186;9.024;2023-04-24T20:12:37;2.42;;;1.30;;
57609;SDS011;43435;46.186;9.024;2023-04-24T20:15:03;3.22;;;1.30;;
57609;SDS011;43435;46.186;9.024;2023-04-24T20:17:28;1.75;;;1.40;;
57609;SDS011;43435;46.186;9.024;2023-04-24T20:19:54;1.50;;;0.70;;
57609;SDS011;43435;46.186;9.024;2023-04-24T20:22:20;1.63;;;0.65;;
57609;SDS011;43435;46.186;9.024;2023-04-24T20:24:45;1.48;;;0.70;;
57609;SDS011;43435;46.186;9.024;2023-04-24T20:27:11;1.75;;;0.80;;
57609;SDS011;43435;46.186;9.024;2023-04-24T20:29:37;1.60;;;0.65;;
57609;SDS011;43435;46.186;9.024;2023-04-24T20:32:02;1.10;;;0.50;;
57609;SDS011;43435;46.186;9.024;2023-04-24T20:34:28;2.00;;;0.50;;
57609;SDS011;43435;46.186;9.024;2023-04-24T20:36:53;1.30;;;0.60;;
57609;SDS011;43435;46.186;9.024;2023-04-24T20:39:20;0.60;;;0.57;;
57609;SDS011;43435;46.186;9.024;2023-04-24T20:41:46;0.98;;;0.50;;
57609;SDS011;43435;46.186;9.024;2023-04-24T20:44:11;0.60;;;0.47;;
57609;SDS011;43435;46.186;9.024;2023-04-24T20:46:37;0.88;;;0.47;;
57609;SDS011;43435;46.186;9.024;2023-04-24T20:49:02;1.58;;;0.47;;
57609;SDS011;43435;46.186;9.024;2023-04-24T20:51:29;1.15;;;0.40;;
57609;SDS011;43435;46.186;9.024;2023-04-24T20:53:54;1.00;;;0.38;;
57609;SDS011;43435;46.186;9.024;2023-04-24T20:56:20;3.08;;;0.60;;
57609;SDS011;43435;46.186;9.024;2023-04-24T20:58:45;1.85;;;0.50;;
57609;SDS011;43435;46.186;9.024;2023-04-24T21:01:14;0.50;;;0.40;;
57609;SDS011;43435;46.186;9.024;2023-04-24T21:03:40;0.68;;;0.57;;
57609;SDS011;43435;46.186;9.024;2023-04-24T21:06:06;0.85;;;0.50;;
57609;SDS011;43435;46.186;9.024;2023-04-24T21:08:31;1.30;;;0.60;;
57609;SDS011;43435;46.186;9.024;2023-04-24T21:10:56;2.15;;;0.55;;
57609;SDS011;43435;46.186;9.024;2023-04-24T21:13:22;0.80;;;0.45;;
57609;SDS011;43435;46.186;9.024;2023-04-24T21:15:47;0.68;;;0.40;;
57609;SDS011;43435;46.186;9.024;2023-04-24T21:18:12;1.73;;;0.40;;
57609;SDS011;43435;46.186;9.024;2023-04-24T21:20:38;0.90;;;0.30;;
57609;SDS011;43435;46.186;9.024;2023-04-24T21:23:03;0.57;;;0.40;;
57609;SDS011;43435;46.186;9.024;2023-04-24T21:25:28;0.85;;;0.50;;
57609;SDS011;43435;46.186;9.024;2023-04-24T21:27:54;0.47;;;0.38;;
57609;SDS011;43435;46.186;9.024;2023-04-24T21:30:21;1.33;;;0.60;;
57609;SDS011;43435;46.186;9.024;2023-04-24T21:32:47;0.60;;;0.30;;
57609;SDS011;43435;46.186;9.024;2023-04-24T21:35:12;0.85;;;0.40;;
57609;SDS011;43435;46.186;9.024;2023-04-24T21:37:38;1.15;;;0.50;;
57609;SDS011;43435;46.186;9.024;2023-04-24T21:40:04;0.55;;;0.30;;
57609;SDS011;43435;46.186;9.024;2023-04-24T21:42:30;0.30;;;0.28;;
57609;SDS011;43435;46.186;9.024;2023-04-24T21:44:55;1.60;;;0.52;;
57609;SDS011;43435;46.186;9.024;2023-04-24T21:47:20;1.42;;;0.65;;
57609;SDS011;43435;46.186;9.024;2023-04-24T21:49:46;0.55;;;0.32;;
57609;SDS011;43435;46.186;9.024;2023-04-24T21:52:11;2.95;;;0.60;;
57609;SDS011;43435;46.186;9.024;2023-04-24T21:54:37;1.20;;;0.43;;
57609;SDS011;43435;46.186;9.024;2023-04-24T21:57:02;1.05;;;0.50;;
57609;SDS011;43435;46.186;9.024;2023-04-24T21:59:27;0.95;;;0.40;;
57609;SDS011;43435;46.186;9.024;2023-04-24T22:01:53;0.70;;;0.40;;
57609;SDS011;43435;46.186;9.024;2023-04-24T22:04:19;0.60;;;0.30;;
57609;SDS011;43435;46.186;9.024;2023-04-24T22:06:45;1.38;;;0.40;;
57609;SDS011;43435;46.186;9.024;2023-04-24T22:09:10;0.60;;;0.38;;
57609;SDS011;43435;46.186;9.024;2023-04-24T22:11:35;0.73;;;0.40;;
57609;SDS011;43435;46.186;9.024;2023-04-24T22:14:01;1.05;;;0.50;;
57609;SDS011;43435;46.186;9.024;2023-04-24T22:16:27;1.10;;;0.60;;
57609;SDS011;43435;46.186;9.024;2023-04-24T22:18:53;0.90;;;0.50;;
57609;SDS011;43435;46.186;9.024;2023-04-24T22:21:19;0.95;;;0.43;;
57609;SDS011;43435;46.186;9.024;2023-04-24T22:23:45;1.25;;;0.73;;
57609;SDS011;43435;46.186;9.024;2023-04-24T22:26:11;1.27;;;0.80;;
57609;SDS011;43435;46.186;9.024;2023-04-24T22:28:36;1.05;;;0.50;;
57609;SDS011;43435;46.186;9.024;2023-04-24T22:31:02;0.52;;;0.40;;
57609;SDS011;43435;46.186;9.024;2023-04-24T22:33:27;0.90;;;0.40;;
57609;SDS011;43435;46.186;9.024;2023-04-24T22:35:52;1.52;;;0.80;;
57609;SDS011;43435;46.186;9.024;2023-04-24T22:38:17;0.80;;;0.43;;
57609;SDS011;43435;46.186;9.024;2023-04-24T22:40:43;0.40;;;0.40;;
57609;SDS011;43435;46.186;9.024;2023-04-24T22:43:08;2.28;;;0.45;;
57609;SDS011;43435;46.186;9.024;2023-04-24T22:45:33;1.63;;;0.50;;
57609;SDS011;43435;46.186;9.024;2023-04-24T22:47:59;1.45;;;0.47;;
57609;SDS011;43435;46.186;9.024;2023-04-24T22:50:24;1.00;;;0.55;;
57609;SDS011;43435;46.186;9.024;2023-04-24T22:52:51;1.02;;;0.40;;
57609;SDS011;43435;46.186;9.024;2023-04-24T22:55:17;0.82;;;0.32;;
57609;SDS011;43435;46.186;9.024;2023-04-24T22:57:42;1.38;;;0.45;;
57609;SDS011;43435;46.186;9.024;2023-04-24T23:00:09;0.82;;;0.40;;
57609;SDS011;43435;46.186;9.024;2023-04-24T23:02:36;0.80;;;0.40;;
57609;SDS011;43435;46.186;9.024;2023-04-24T23:05:05;0.43;;;0.30;;
57609;SDS011;43435;46.186;9.024;2023-04-24T23:07:32;0.60;;;0.45;;
57609;SDS011;43435;46.186;9.024;2023-04-24T23:09:58;0.57;;;0.38;;
57609;SDS011;43435;46.186;9.024;2023-04-24T23:12:23;0.82;;;0.50;;
57609;SDS011;43435;46.186;9.024;2023-04-24T23:14:49;1.73;;;0.50;;
57609;SDS011;43435;46.186;9.024;2023-04-24T23:17:14;0.65;;;0.40;;
57609;SDS011;43435;46.186;9.024;2023-04-24T23:19:40;0.47;;;0.35;;
57609;SDS011;43435;46.186;9.024;2023-04-24T23:22:05;0.47;;;0.30;;
57609;SDS011;43435;46.186;9.024;2023-04-24T23:24:30;0.90;;;0.50;;
57609;SDS011;43435;46.186;9.024;2023-04-24T23:26:56;0.75;;;0.65;;
57609;SDS011;43435;46.186;9.024;2023-04-24T23:29:21;0.93;;;0.40;;
57609;SDS011;43435;46.186;9.024;2023-04-24T23:31:47;0.65;;;0.47;;
57609;SDS011;43435;46.186;9.024;2023-04-24T23:34:13;0.93;;;0.43;;
57609;SDS011;43435;46.186;9.024;2023-04-24T23:36:40;1.58;;;0.70;;
57609;SDS011;43435;46.186;9.024;2023-04-24T23:39:05;2.08;;;0.63;;
57609;SDS011;43435;46.186;9.024;2023-04-24T23:41:31;0.98;;;0.50;;
57609;SDS011;43435;46.186;9.024;2023-04-24T23:43:56;1.63;;;0.45;;
57609;SDS011;43435;46.186;9.024;2023-04-24T23:46:21;0.98;;;0.47;;
57609;SDS011;43435;46.186;9.024;2023-04-24T23:48:47;1.13;;;0.50;;
57609;SDS011;43435;46.186;9.024;2023-04-24T23:51:12;2.58;;;0.40;;
57609;SDS011;43435;46.186;9.024;2023-04-24T23:53:38;0.70;;;0.32;;
57609;SDS011;43435;46.186;9.024;2023-04-24T23:56:03;0.88;;;0.30;;
57609;SDS011;43435;46.186;9.024;2023-04-24T23:58:29;1.35;;;0.30;;
